Terminal Aerodrome Forecast
Issued by NWS

Home | Current Version | Previous Version | Text Only | Print | Product List | Glossary On
Versions: 1 2 3 4 5 6 7 8 9 10 11 12 13 14 15 16 17 18 19 20 21 22 23 24 25
000
FTUS43 KDTX 152320
TAFPTK
TAF
KPTK 152320Z 1600/1624 20004KT P6SM SCT022 OVC040
      TEMPO 1600/1604 OVC022
     FM160400 VRB04KT P6SM OVC016
     FM161000 36004KT 4SM -DZ BR SCT005 OVC008
     FM161500 01006KT P6SM BKN016 OVC028
     FM162000 02007KT P6SM SCT022 BKN030=

USA.gov is the U.S. government's official web portal to all federal, state and local government web resources and services.